Time;durP1;ratioP1;P1;durP2;ratioP2;P2;SDS_P1;SDS_P2;PMS_P1;PMS_P2;Temp;Humidity;BMP_temperature;BMP_pressure;BME280_temperature;BME280_humidity;BME280_pressure;Samples;Min_cycle;Max_cycle;Signal;HPM_P1;HPM_P2
2021/07/24 00:01:12;;;;;;;9.60;7.47;;;;;;;19.46;89.10;97896.09;5090270;28;20031;-77
2021/07/24 00:03:39;;;;;;;10.95;8.15;;;;;;;19.51;89.14;97895.06;5089912;28;20024;-76
2021/07/24 00:06:05;;;;;;;14.75;8.35;;;;;;;19.71;88.06;97889.25;5091002;28;20469;-76
2021/07/24 00:08:31;;;;;;;9.55;7.75;;;;;;;19.91;87.06;97892.97;5089694;28;20032;-77
2021/07/24 00:10:56;;;;;;;12.90;8.30;;;;;;;19.73;88.06;97891.69;5089712;28;20032;-76
2021/07/24 00:13:22;;;;;;;15.32;9.25;;;;;;;19.47;89.61;97888.59;5090029;28;20020;-76
2021/07/24 00:15:48;;;;;;;9.80;7.38;;;;;;;19.45;90.28;97882.59;5088831;28;20484;-75
2021/07/24 00:18:13;;;;;;;14.00;8.57;;;;;;;19.36;91.61;97881.94;5090916;28;20111;-77
2021/07/24 00:20:39;;;;;;;13.85;9.57;;;;;;;19.18;92.90;97871.13;5090680;28;20476;-77
2021/07/24 00:23:08;;;;;;;12.35;9.30;;;;;;;19.11;93.46;97868.16;5090800;28;20069;-77
2021/07/24 00:25:36;;;;;;;12.38;8.82;;;;;;;19.15;93.14;97869.06;5090561;28;20381;-77
2021/07/24 00:28:01;;;;;;;14.93;9.80;;;;;;;19.33;91.67;97872.31;5090436;28;20027;-77
2021/07/24 00:30:27;;;;;;;10.70;8.55;;;;;;;19.29;91.49;97870.63;5090952;28;20027;-77
2021/07/24 00:32:52;;;;;;;15.23;8.50;;;;;;;19.19;92.26;97866.41;5089685;28;20038;-76
2021/07/24 00:35:18;;;;;;;12.45;8.90;;;;;;;19.35;91.57;97866.44;5089072;28;20054;-76
2021/07/24 00:37:44;;;;;;;10.52;8.40;;;;;;;19.40;91.29;97858.69;5090373;28;20034;-77
2021/07/24 00:40:14;;;;;;;10.05;7.55;;;;;;;19.22;92.27;97863.72;5089365;28;20111;-77
2021/07/24 00:42:43;;;;;;;12.10;8.88;;;;;;;19.05;93.37;97846.56;5090189;28;20056;-77
2021/07/24 00:45:12;;;;;;;13.80;9.57;;;;;;;19.16;93.16;97862.38;5090462;28;20050;-77
2021/07/24 00:47:40;;;;;;;17.20;9.95;;;;;;;19.39;91.25;97854.25;5088937;28;20062;-76
2021/07/24 00:50:10;;;;;;;12.50;9.73;;;;;;;19.17;92.09;97833.47;5088875;28;20044;-74
2021/07/24 00:52:39;;;;;;;18.80;11.18;;;;;;;19.27;92.02;97854.31;5090385;28;20019;-75
2021/07/24 00:55:05;;;;;;;10.95;9.35;;;;;;;19.13;93.04;97851.97;5090207;28;20028;-75
2021/07/24 00:57:31;;;;;;;11.25;9.27;;;;;;;18.96;93.78;97851.47;5089912;28;20054;-75
2021/07/24 00:59:56;;;;;;;10.35;8.50;;;;;;;18.72;94.89;97841.28;5090052;28;20020;-75
2021/07/24 01:02:22;;;;;;;10.38;8.77;;;;;;;18.77;94.84;97837.44;5089469;28;20541;-76
2021/07/24 01:04:47;;;;;;;12.63;8.75;;;;;;;18.55;96.34;97838.78;5090427;28;20031;-76
2021/07/24 01:07:12;;;;;;;13.20;8.75;;;;;;;18.57;96.27;97842.84;5089769;28;20441;-77
2021/07/24 01:09:38;;;;;;;12.38;7.93;;;;;;;18.54;96.35;97849.03;5089572;28;20032;-75
2021/07/24 01:12:04;;;;;;;10.00;8.70;;;;;;;18.60;96.27;97844.91;5088729;28;20024;-77
2021/07/24 01:14:31;;;;;;;11.02;8.57;;;;;;;18.55;95.98;97824.91;5090191;28;20036;-75
2021/07/24 01:16:57;;;;;;;10.20;8.77;;;;;;;18.60;95.42;97835.78;5089638;28;20024;-75
2021/07/24 01:19:23;;;;;;;9.85;8.27;;;;;;;18.76;94.97;97836.66;5090252;28;20051;-74
2021/07/24 01:21:49;;;;;;;10.65;8.15;;;;;;;18.69;94.47;97830.91;5090100;28;20484;-75
2021/07/24 01:24:14;;;;;;;11.55;9.02;;;;;;;18.63;94.55;97833.13;5090162;28;20031;-75
2021/07/24 01:26:44;;;;;;;12.50;8.13;;;;;;;18.51;95.25;97824.81;5089708;28;20110;-74
2021/07/24 01:29:16;;;;;;;10.43;7.47;;;;;;;18.77;94.23;97832.72;5088539;28;20362;-74
2021/07/24 01:31:42;;;;;;;11.10;7.93;;;;;;;18.59;95.00;97832.19;5086382;28;20094;-74
2021/07/24 01:34:08;;;;;;;10.50;8.10;;;;;;;18.46;96.24;97840.84;5088407;28;20020;-75
2021/07/24 01:36:34;;;;;;;14.60;8.20;;;;;;;18.39;96.74;97837.84;5089343;28;20059;-75
2021/07/24 01:39:00;;;;;;;14.40;9.65;;;;;;;18.25;97.44;97838.22;5089389;28;20028;-74
2021/07/24 01:41:25;;;;;;;11.73;9.45;;;;;;;18.24;97.65;97841.34;5089625;28;20031;-74
2021/07/24 01:43:51;;;;;;;11.05;8.27;;;;;;;18.20;97.91;97828.19;5089393;28;20086;-75
2021/07/24 01:46:16;;;;;;;11.52;8.40;;;;;;;18.38;96.88;97834.28;5089702;28;20055;-74
2021/07/24 01:54:30;;;;;;;11.15;8.60;;;;;;;18.10;98.48;97825.91;5090130;28;20177;-76
2021/07/24 01:56:56;;;;;;;10.23;8.70;;;;;;;18.15;97.97;97836.75;5089471;28;20020;-75
2021/07/24 01:59:28;;;;;;;9.70;7.88;;;;;;;18.05;98.43;97839.16;5088411;28;20050;-76
2021/07/24 02:01:55;;;;;;;10.77;8.75;;;;;;;18.04;97.62;97820.94;5090430;28;20043;-75
2021/07/24 02:04:25;;;;;;;9.88;8.13;;;;;;;18.20;96.53;97817.09;5092023;28;20046;-77
2021/07/24 02:06:50;;;;;;;10.48;8.23;;;;;;;18.38;95.31;97822.41;5091714;28;20153;-75
2021/07/24 02:09:17;;;;;;;10.80;9.30;;;;;;;18.35;95.21;97817.56;5091247;28;20059;-77
2021/07/24 02:11:44;;;;;;;10.18;8.43;;;;;;;18.28;95.48;97814.56;5089440;28;20480;-76
2021/07/24 02:14:09;;;;;;;11.57;9.77;;;;;;;18.10;96.41;97809.31;5093071;28;20032;-77
2021/07/24 02:16:35;;;;;;;10.88;8.25;;;;;;;18.13;96.77;97813.34;5092977;28;20031;-75
2021/07/24 02:19:01;;;;;;;12.60;9.95;;;;;;;18.11;96.64;97799.81;5092761;28;20028;-77
2021/07/24 02:21:30;;;;;;;10.88;8.85;;;;;;;18.16;96.25;97807.09;5092988;28;20035;-78
2021/07/24 02:23:56;;;;;;;12.38;8.63;;;;;;;18.06;97.28;97802.84;5093177;28;20074;-75
2021/07/24 02:26:21;;;;;;;10.80;8.23;;;;;;;18.06;97.18;97804.78;5083052;28;20028;-77
2021/07/24 02:28:47;;;;;;;13.30;9.10;;;;;;;17.92;98.06;97805.13;5072055;28;20031;-78
2021/07/24 02:31:12;;;;;;;12.00;9.15;;;;;;;17.80;99.40;97807.91;5081128;28;20635;-75
2021/07/24 02:33:37;;;;;;;10.80;8.98;;;;;;;17.89;98.75;97808.59;5092820;28;20069;-77
2021/07/24 02:36:03;;;;;;;11.63;9.05;;;;;;;18.02;98.21;97817.72;5092436;28;20043;-76
2021/07/24 02:38:28;;;;;;;10.82;8.32;;;;;;;18.05;97.79;97817.00;5090919;28;20089;-76
2021/07/24 02:40:54;;;;;;;9.95;8.88;;;;;;;18.02;97.99;97815.75;5091009;28;20135;-77
2021/07/24 02:43:19;;;;;;;11.98;9.23;;;;;;;18.08;97.78;97819.91;5084177;28;20035;-77
2021/07/24 02:45:45;;;;;;;16.88;9.68;;;;;;;17.94;98.68;97821.41;5109837;28;20027;-79
2021/07/24 02:48:11;;;;;;;14.65;9.45;;;;;;;17.99;98.04;97813.69;5111100;28;20028;-76
2021/07/24 02:50:36;;;;;;;12.18;9.40;;;;;;;18.06;97.53;97818.63;5112610;28;20052;-76
2021/07/24 02:53:01;;;;;;;12.75;9.52;;;;;;;18.17;96.72;97815.03;5112965;28;20111;-75
2021/07/24 02:55:27;;;;;;;14.77;8.68;;;;;;;18.17;96.09;97815.03;5110999;28;20396;-77
2021/07/24 02:57:53;;;;;;;10.60;8.90;;;;;;;18.22;95.84;97811.25;5112366;28;20076;-76
2021/07/24 03:00:18;;;;;;;11.25;8.57;;;;;;;18.20;95.50;97811.56;5112718;28;20035;-75
2021/07/24 03:02:44;;;;;;;9.65;8.00;;;;;;;18.08;95.80;97816.31;5113144;28;20483;-75
2021/07/24 03:05:09;;;;;;;10.02;8.20;;;;;;;17.86;97.43;97798.22;5112716;28;20027;-76
2021/07/24 03:07:36;;;;;;;10.35;8.52;;;;;;;17.82;97.99;97813.94;5101739;28;20437;-75
2021/07/24 03:10:01;;;;;;;13.48;8.55;;;;;;;17.86;98.17;97817.59;5090915;28;20020;-76
2021/07/24 03:12:27;;;;;;;14.40;9.38;;;;;;;17.82;97.48;97811.16;5090941;28;20366;-78
2021/07/24 03:14:53;;;;;;;9.80;8.52;;;;;;;17.88;97.53;97804.25;5091907;28;20032;-76
2021/07/24 03:17:18;;;;;;;10.30;8.05;;;;;;;17.98;96.91;97812.06;5091896;28;20024;-75
2021/07/24 03:19:43;;;;;;;9.88;8.57;;;;;;;17.84;97.93;97808.84;5090551;28;20024;-75
2021/07/24 03:22:09;;;;;;;10.80;8.02;;;;;;;17.73;98.65;97804.91;5092002;28;20024;-76
2021/07/24 03:24:34;;;;;;;16.63;8.93;;;;;;;17.79;97.13;97784.19;5090548;28;20404;-76
2021/07/24 03:27:00;;;;;;;10.38;8.55;;;;;;;18.13;96.30;97807.78;5091699;28;20149;-76
2021/07/24 03:29:26;;;;;;;15.70;8.98;;;;;;;18.06;96.13;97800.06;5091522;28;20028;-76
2021/07/24 03:31:51;;;;;;;12.57;8.43;;;;;;;18.05;96.01;97805.94;5092436;28;20132;-76
2021/07/24 03:34:16;;;;;;;15.13;8.18;;;;;;;18.23;94.89;97807.28;5091487;28;20766;-76
2021/07/24 03:36:42;;;;;;;9.70;8.10;;;;;;;18.17;95.37;97811.47;5090259;28;20106;-76
2021/07/24 03:39:07;;;;;;;10.48;8.32;;;;;;;18.05;95.96;97820.59;5091714;28;20042;-77
2021/07/24 03:41:35;;;;;;;11.82;7.95;;;;;;;18.17;95.35;97815.03;5085471;28;20078;-77
2021/07/24 03:44:00;;;;;;;13.82;9.32;;;;;;;18.14;95.70;97821.28;5074838;28;20028;-77
2021/07/24 03:46:26;;;;;;;13.38;10.52;;;;;;;17.66;99.68;97821.28;5071260;28;20037;-76
2021/07/24 03:48:52;;;;;;;13.98;11.50;;;;;;;17.55;100.00;97826.47;5091039;28;20024;-77
2021/07/24 03:51:18;;;;;;;15.90;10.63;;;;;;;17.71;100.00;97834.88;5089646;28;20416;-77
2021/07/24 03:53:43;;;;;;;16.00;11.75;;;;;;;17.92;98.47;97818.16;5091217;28;20035;-78
2021/07/24 03:56:19;;;;;;;17.55;12.18;;;;;;;18.00;98.17;97839.41;5089713;28;20039;-77
2021/07/24 03:58:47;;;;;;;14.18;10.77;;;;;;;17.94;98.56;97829.72;5087564;28;20054;-75
2021/07/24 04:01:13;;;;;;;16.75;12.07;;;;;;;18.04;97.86;97838.34;5069425;28;20102;-76
2021/07/24 04:03:39;;;;;;;16.15;11.18;;;;;;;18.07;97.83;97826.56;5086280;28;20028;-77
2021/07/24 04:06:07;;;;;;;16.67;11.82;;;;;;;18.07;97.58;97826.56;5090771;28;20028;-77
2021/07/24 04:08:33;;;;;;;13.98;11.13;;;;;;;18.39;95.65;97837.84;5089386;28;20504;-77
2021/07/24 04:10:59;;;;;;;17.15;10.52;;;;;;;18.79;93.26;97833.19;5089036;28;20080;-76
2021/07/24 04:13:25;;;;;;;14.05;10.68;;;;;;;18.61;92.44;97823.50;5089314;28;20024;-76
2021/07/24 04:15:50;;;;;;;16.63;10.93;;;;;;;18.40;94.40;97812.59;5090942;28;20445;-79
2021/07/24 04:18:16;;;;;;;13.48;8.68;;;;;;;18.27;94.30;97821.25;5090164;28;20032;-76
2021/07/24 04:20:42;;;;;;;13.52;10.05;;;;;;;18.01;96.55;97811.34;5089253;28;20089;-77
2021/07/24 04:23:08;;;;;;;12.68;9.07;;;;;;;18.19;95.64;97815.50;5090409;28;20040;-75
2021/07/24 04:25:34;;;;;;;14.35;9.55;;;;;;;18.19;95.29;97832.13;5089178;28;20408;-76
2021/07/24 04:27:59;;;;;;;13.15;9.38;;;;;;;18.42;94.98;97831.63;5090369;28;20024;-78
2021/07/24 04:30:25;;;;;;;17.50;10.38;;;;;;;18.39;93.69;97826.75;5089970;28;20098;-78
2021/07/24 04:32:51;;;;;;;13.07;10.13;;;;;;;18.43;94.12;97839.59;5090812;28;20039;-76
2021/07/24 04:35:17;;;;;;;11.77;8.82;;;;;;;18.79;92.02;97835.13;5086858;28;20040;-78
2021/07/24 04:37:42;;;;;;;16.60;8.77;;;;;;;18.97;90.27;97817.84;5068921;28;20040;-78
2021/07/24 04:40:08;;;;;;;15.55;9.90;;;;;;;18.83;91.22;97824.94;5074396;28;20032;-80
2021/07/24 04:42:33;;;;;;;11.00;9.02;;;;;;;18.72;91.96;97830.19;5068543;28;20024;-78
2021/07/24 04:44:59;;;;;;;13.45;9.60;;;;;;;18.95;91.02;97836.78;5069942;28;20031;-79
2021/07/24 04:47:25;;;;;;;12.68;9.35;;;;;;;19.08;89.75;97827.25;5069448;28;20107;-78
2021/07/24 04:49:52;;;;;;;11.32;8.70;;;;;;;19.14;89.74;97814.75;5069861;28;20031;-79
2021/07/24 04:52:19;;;;;;;9.65;8.20;;;;;;;19.22;88.76;97826.84;5070124;28;20082;-79
2021/07/24 04:54:47;;;;;;;10.80;8.75;;;;;;;19.28;88.53;97822.66;5073286;28;20024;-79
2021/07/24 04:57:14;;;;;;;10.10;8.85;;;;;;;19.30;88.15;97822.28;5089651;28;20032;-78
2021/07/24 04:59:46;;;;;;;10.30;8.98;;;;;;;19.38;87.35;97816.59;5087629;28;20121;-78
2021/07/24 05:02:20;;;;;;;10.93;8.77;;;;;;;19.30;87.50;97797.31;5088987;28;20468;-78
2021/07/24 05:04:47;;;;;;;12.75;9.15;;;;;;;19.70;85.55;97809.91;5088801;28;20020;-78
2021/07/24 05:07:15;;;;;;;11.77;8.30;;;;;;;19.68;85.31;97794.78;5088282;28;20032;-78
2021/07/24 05:09:41;;;;;;;13.07;8.15;;;;;;;19.59;84.98;97816.38;5089754;28;20365;-78
2021/07/24 05:12:07;;;;;;;15.98;8.48;;;;;;;19.24;87.40;97797.59;5089895;28;20032;-79
2021/07/24 05:14:32;;;;;;;14.77;8.95;;;;;;;19.19;87.94;97806.19;5088235;28;20112;-78
2021/07/24 05:17:12;;;;;;;14.93;8.70;;;;;;;19.22;87.95;97804.66;5087850;28;20388;-77
2021/07/24 05:19:39;;;;;;;11.90;8.38;;;;;;;19.34;87.80;97804.59;5074154;28;20112;-79
2021/07/24 05:22:06;;;;;;;13.32;8.77;;;;;;;19.36;87.61;97805.03;5079859;28;20028;-78
2021/07/24 05:24:32;;;;;;;7.57;6.22;;;;;;;19.64;85.21;97796.69;5088327;28;20365;-78
2021/07/24 05:26:58;;;;;;;8.80;6.65;;;;;;;19.56;85.38;97803.22;5089488;28;20500;-77
2021/07/24 05:29:23;;;;;;;9.55;6.88;;;;;;;19.07;87.62;97786.84;5089347;28;20081;-79
2021/07/24 05:31:49;;;;;;;8.82;7.25;;;;;;;19.66;84.37;97784.06;5090053;28;20025;-80
2021/07/24 05:34:14;;;;;;;9.70;6.65;;;;;;;19.82;83.11;97772.94;5087997;28;20042;-77
2021/07/24 05:36:40;;;;;;;8.90;6.78;;;;;;;19.66;84.72;97783.25;5087701;28;20048;-78
2021/07/24 05:39:05;;;;;;;7.75;6.57;;;;;;;19.93;82.90;97775.97;5089373;28;20039;-80
2021/07/24 05:41:30;;;;;;;10.40;6.50;;;;;;;19.71;84.21;97782.97;5087832;28;20540;-78
2021/07/24 05:43:56;;;;;;;8.68;6.25;;;;;;;19.42;85.83;97772.34;5087881;28;20039;-80
2021/07/24 05:46:21;;;;;;;6.38;5.78;;;;;;;19.66;85.10;97770.19;5088390;28;20114;-80
2021/07/24 05:48:46;;;;;;;9.43;6.35;;;;;;;19.34;86.15;97768.53;5090969;28;20032;-79
2021/07/24 05:51:12;;;;;;;9.60;6.50;;;;;;;19.45;86.11;97775.19;5092057;28;20432;-78
2021/07/24 05:53:37;;;;;;;8.07;6.85;;;;;;;19.78;84.31;97772.03;5092308;28;20119;-79
2021/07/24 05:56:03;;;;;;;10.05;7.35;;;;;;;19.67;84.79;97776.53;5093623;28;20469;-79
2021/07/24 05:58:29;;;;;;;8.93;7.20;;;;;;;19.58;84.93;97768.38;5091943;28;20119;-78
2021/07/24 06:00:55;;;;;;;8.30;6.68;;;;;;;20.00;82.82;97765.84;5091469;28;20024;-78
2021/07/24 06:03:20;;;;;;;8.38;6.95;;;;;;;20.38;81.09;97758.78;5093351;28;20073;-79
2021/07/24 06:05:46;;;;;;;9.38;6.10;;;;;;;21.08;77.77;97751.84;5092421;28;20078;-77
2021/07/24 06:08:11;;;;;;;11.05;6.57;;;;;;;21.18;76.95;97765.19;5092651;28;20428;-80
2021/07/24 06:10:37;;;;;;;8.77;6.72;;;;;;;21.52;75.31;97765.41;5094061;28;20028;-80
2021/07/24 06:13:02;;;;;;;9.68;5.93;;;;;;;21.94;73.52;97766.13;5094093;28;20028;-78
2021/07/24 06:15:30;;;;;;;10.95;6.45;;;;;;;21.71;74.57;97766.13;5096558;28;20024;-87
2021/07/24 06:17:56;;;;;;;8.27;6.72;;;;;;;21.90;73.19;97765.25;5109372;28;20085;-86
2021/07/24 06:20:21;;;;;;;8.00;6.07;;;;;;;22.08;72.46;97766.34;5105184;28;20032;-87
2021/07/24 06:22:47;;;;;;;7.13;6.05;;;;;;;21.92;73.19;97762.13;5103148;28;20027;-88
2021/07/24 06:25:12;;;;;;;8.52;6.43;;;;;;;22.11;72.76;97765.59;5101338;28;20039;-86
2021/07/24 06:27:38;;;;;;;7.00;5.75;;;;;;;22.43;70.82;97761.28;5104239;28;20039;-86
2021/07/24 06:30:04;;;;;;;9.68;6.50;;;;;;;22.26;71.69;97761.84;5108784;28;20032;-87
2021/07/24 06:32:30;;;;;;;8.98;6.10;;;;;;;22.04;72.80;97751.56;5100308;28;20078;-87
2021/07/24 06:34:56;;;;;;;7.55;5.47;;;;;;;22.18;71.94;97746.19;5097982;28;20044;-82
2021/07/24 06:37:23;;;;;;;7.68;6.43;;;;;;;22.31;71.50;97764.28;5099605;28;20024;-86
2021/07/24 06:39:48;;;;;;;9.48;6.43;;;;;;;22.36;72.22;97755.63;5098082;28;20060;-87
2021/07/24 06:42:13;;;;;;;13.13;8.25;;;;;;;21.96;73.08;97746.25;5103660;28;20055;-84
2021/07/24 06:44:39;;;;;;;9.55;6.78;;;;;;;22.33;71.87;97745.19;5105272;28;20069;-84
2021/07/24 06:47:05;;;;;;;7.75;6.32;;;;;;;22.31;72.00;97755.94;5101511;28;20028;-84
2021/07/24 06:49:30;;;;;;;10.98;6.82;;;;;;;22.15;72.53;97749.72;5100430;28;20008;-84
2021/07/24 06:51:56;;;;;;;8.45;6.45;;;;;;;22.34;72.32;97762.72;5110767;28;20051;-86
2021/07/24 06:54:21;;;;;;;8.43;6.82;;;;;;;22.27;71.54;97751.50;5103396;28;20020;-86
2021/07/24 06:56:47;;;;;;;9.20;7.05;;;;;;;22.34;71.40;97757.97;5109086;28;20118;-86
2021/07/24 06:59:12;;;;;;;8.80;7.40;;;;;;;22.37;71.69;97759.19;5096108;28;20016;-86
2021/07/24 07:01:38;;;;;;;8.98;6.50;;;;;;;22.76;70.03;97763.34;5098238;28;20115;-86
2021/07/24 07:04:06;;;;;;;7.80;6.75;;;;;;;22.65;70.43;97756.81;5103222;28;20027;-86
2021/07/24 07:06:32;;;;;;;9.55;7.25;;;;;;;22.77;70.15;97764.13;5102267;28;20031;-84
2021/07/24 07:08:57;;;;;;;8.90;7.90;;;;;;;22.89;69.72;97747.16;5095489;28;20081;-86
2021/07/24 07:11:24;;;;;;;8.30;7.30;;;;;;;22.94;68.78;97757.94;5097387;28;20194;-88
2021/07/24 07:13:49;;;;;;;11.15;6.88;;;;;;;23.20;68.38;97769.03;5097246;28;20016;-85
2021/07/24 07:16:15;;;;;;;7.35;6.28;;;;;;;23.98;65.81;97766.97;5090967;28;20028;-76
2021/07/24 07:18:40;;;;;;;7.88;6.53;;;;;;;24.51;64.02;97767.31;5090609;28;20077;-76
2021/07/24 07:21:09;;;;;;;9.75;6.43;;;;;;;24.74;62.98;97769.84;5092805;28;20078;-78
2021/07/24 07:23:35;;;;;;;17.55;6.53;;;;;;;25.21;60.85;97761.25;5089653;28;20027;-76
2021/07/24 07:26:01;;;;;;;8.60;6.25;;;;;;;25.17;60.04;97760.44;5091879;28;20017;-77
2021/07/24 07:28:26;;;;;;;10.60;6.65;;;;;;;25.04;60.64;97773.19;5092032;28;20073;-75
2021/07/24 07:30:52;;;;;;;7.47;6.68;;;;;;;25.37;60.05;97769.28;5092196;28;20032;-77
2021/07/24 07:33:18;;;;;;;10.25;8.00;;;;;;;25.09;60.27;97775.63;5090954;28;20039;-77
2021/07/24 07:35:43;;;;;;;7.90;6.28;;;;;;;25.43;60.22;97768.50;5092121;28;20086;-75
2021/07/24 07:38:09;;;;;;;10.45;6.75;;;;;;;25.62;59.18;97763.75;5090362;28;20056;-78
2021/07/24 07:40:39;;;;;;;9.45;5.80;;;;;;;25.70;59.52;97759.72;5091487;28;20070;-73
2021/07/24 07:43:06;;;;;;;7.25;6.18;;;;;;;25.79;58.34;97772.16;5092138;28;20031;-73
2021/07/24 07:45:32;;;;;;;10.90;6.90;;;;;;;26.09;57.98;97760.53;5091426;28;20024;-73
2021/07/24 07:47:58;;;;;;;9.48;7.07;;;;;;;26.04;57.29;97764.53;5092892;28;20024;-74
2021/07/24 07:50:24;;;;;;;9.00;6.45;;;;;;;26.37;56.39;97771.75;5093032;28;20019;-76
2021/07/24 07:52:49;;;;;;;9.60;6.97;;;;;;;26.04;56.53;97764.53;5091479;28;20032;-77
2021/07/24 07:55:15;;;;;;;8.57;6.30;;;;;;;25.98;57.52;97763.34;5092340;28;20041;-74
2021/07/24 07:57:41;;;;;;;8.88;7.70;;;;;;;25.11;59.85;97773.22;5093422;28;20047;-78
2021/07/24 08:00:07;;;;;;;8.35;7.53;;;;;;;24.56;62.15;97771.75;5088427;28;20661;-74
2021/07/24 08:02:33;;;;;;;9.70;7.88;;;;;;;25.20;60.37;97770.03;5089915;28;20028;-76
2021/07/24 08:05:02;;;;;;;7.70;6.90;;;;;;;25.59;58.85;97764.53;5090129;28;20028;-76
2021/07/24 08:07:27;;;;;;;9.10;6.88;;;;;;;26.34;57.30;97772.56;5091329;28;20028;-77
2021/07/24 08:09:56;;;;;;;8.77;6.85;;;;;;;26.17;56.28;97759.34;5088194;28;20129;-76
2021/07/24 08:12:22;;;;;;;10.63;7.38;;;;;;;25.77;57.94;97759.75;5092744;28;20493;-79
2021/07/24 08:14:47;;;;;;;9.55;7.82;;;;;;;25.90;57.81;97758.94;5091722;28;20079;-78
2021/07/24 08:17:13;;;;;;;8.63;6.82;;;;;;;26.32;56.32;97758.13;5092081;28;20111;-75
2021/07/24 08:19:38;;;;;;;10.65;7.70;;;;;;;25.82;57.27;97750.91;5082822;28;20032;-75
2021/07/24 08:22:03;;;;;;;9.13;6.53;;;;;;;26.21;56.85;97762.97;5074702;28;20389;-75
2021/07/24 08:24:29;;;;;;;9.82;6.88;;;;;;;26.47;55.32;97762.47;5071997;28;20389;-74
2021/07/24 08:26:54;;;;;;;14.18;7.75;;;;;;;26.24;56.11;97753.72;5086311;28;20032;-75
2021/07/24 08:29:20;;;;;;;9.55;7.47;;;;;;;26.43;55.32;97752.50;5090356;28;20035;-74
2021/07/24 08:31:45;;;;;;;14.38;7.82;;;;;;;26.75;54.37;97755.19;5092345;28;20031;-74
2021/07/24 08:34:11;;;;;;;9.70;7.45;;;;;;;26.46;55.68;97746.88;5091851;28;20031;-74
2021/07/24 08:36:36;;;;;;;9.38;8.00;;;;;;;26.04;56.68;97752.50;5091802;28;20066;-75
2021/07/24 08:39:02;;;;;;;13.02;7.13;;;;;;;25.96;56.79;97748.13;5091481;28;20032;-77
2021/07/24 08:41:27;;;;;;;9.13;6.82;;;;;;;26.67;55.30;97748.00;5092274;28;20056;-77
2021/07/24 08:43:53;;;;;;;14.52;7.85;;;;;;;26.29;55.17;97752.50;5093096;28;20032;-76
2021/07/24 08:46:19;;;;;;;8.73;7.07;;;;;;;26.36;55.15;97744.88;5098117;28;20035;-78
2021/07/24 08:48:45;;;;;;;10.77;8.90;;;;;;;26.25;55.18;97744.09;5099563;28;20070;-78
2021/07/24 08:51:15;;;;;;;10.00;6.82;;;;;;;27.24;52.78;97754.97;5103184;28;20028;-78
2021/07/24 08:53:42;;;;;;;9.90;7.40;;;;;;;27.48;51.68;97750.44;5091440;28;20028;-75
2021/07/24 08:56:17;;;;;;;9.90;7.07;;;;;;;27.82;50.77;97736.50;5091597;28;20111;-84
2021/07/24 08:58:45;;;;;;;9.60;6.90;;;;;;;27.66;50.73;97739.84;5090178;28;20038;-85
2021/07/24 09:01:22;;;;;;;9.13;7.50;;;;;;;27.13;52.22;97734.56;5091547;28;20032;-76
2021/07/24 09:03:48;;;;;;;12.00;7.53;;;;;;;27.35;51.83;97741.66;5088258;28;20111;-79
2021/07/24 09:06:22;;;;;;;9.50;7.50;;;;;;;27.40;51.94;97735.63;5089362;28;20032;-77
2021/07/24 09:08:49;;;;;;;9.70;7.03;;;;;;;28.07;51.12;97728.69;5088649;28;20499;-78
2021/07/24 09:11:15;;;;;;;8.57;7.15;;;;;;;28.98;48.89;97728.88;5090484;28;20051;-81
2021/07/24 09:13:41;;;;;;;8.65;7.45;;;;;;;28.16;50.99;97732.59;5091566;28;20043;-81
2021/07/24 09:16:06;;;;;;;7.78;6.82;;;;;;;28.27;50.55;97735.34;5090212;28;20027;-76
2021/07/24 09:18:33;;;;;;;10.40;8.25;;;;;;;28.30;51.85;97733.69;5092335;28;20035;-78
2021/07/24 09:20:59;;;;;;;9.90;7.57;;;;;;;27.40;52.36;97730.00;5090042;28;20027;-84
2021/07/24 09:23:26;;;;;;;13.85;8.00;;;;;;;27.03;53.20;97721.41;5089159;28;20063;-75
2021/07/24 09:25:52;;;;;;;10.57;7.05;;;;;;;27.18;55.65;97720.09;5090954;28;20103;-81
2021/07/24 09:28:18;;;;;;;10.30;7.65;;;;;;;27.43;53.06;97720.78;5090178;28;20123;-76
2021/07/24 09:30:43;;;;;;;11.13;8.30;;;;;;;27.52;51.95;97712.66;5090702;28;20027;-76
2021/07/24 09:33:13;;;;;;;12.13;7.95;;;;;;;27.57;52.40;97717.84;5091198;28;20350;-73
2021/07/24 09:35:46;;;;;;;9.85;7.35;;;;;;;27.69;50.42;97718.56;5090335;28;20040;-74
2021/07/24 09:38:11;;;;;;;11.70;6.95;;;;;;;27.98;52.89;97722.72;5090833;28;20115;-76
2021/07/24 09:40:38;;;;;;;12.60;7.35;;;;;;;27.30;52.88;97716.81;5090948;28;20119;-76
2021/07/24 09:43:24;;;;;;;7.82;6.72;;;;;;;27.76;52.35;97722.09;5090180;28;20024;-75
2021/07/24 09:46:20;;;;;;;12.52;7.40;;;;;;;28.06;50.62;97715.84;5087620;28;20028;-74
2021/07/24 09:48:50;;;;;;;11.73;7.35;;;;;;;28.34;49.86;97712.75;5089694;28;20020;-76
2021/07/24 09:51:33;;;;;;;10.02;8.15;;;;;;;28.54;50.46;97702.44;5090386;28;20016;-75
2021/07/24 09:53:59;;;;;;;8.52;7.22;;;;;;;28.81;49.76;97702.56;5089242;28;20028;-73
2021/07/24 09:56:40;;;;;;;10.98;7.30;;;;;;;28.43;52.26;97701.78;5089749;28;20032;-72
2021/07/24 09:59:33;;;;;;;13.75;7.07;;;;;;;28.98;50.73;97689.44;5087707;28;20032;-73
2021/07/24 10:02:03;;;;;;;7.03;6.32;;;;;;;28.83;50.08;97693.66;5085169;28;20031;-78
2021/07/24 10:04:37;;;;;;;10.82;7.50;;;;;;;28.88;50.54;97696.81;5089025;28;20020;-78
2021/07/24 10:07:07;;;;;;;7.85;6.10;;;;;;;29.39;51.46;97692.88;5087976;28;20028;-77
2021/07/24 10:09:37;;;;;;;9.85;7.30;;;;;;;29.10;49.54;97686.84;5071644;28;20081;-77
2021/07/24 10:12:08;;;;;;;13.27;8.85;;;;;;;29.41;49.31;97682.00;5082179;28;20028;-80
2021/07/24 10:14:35;;;;;;;7.20;6.15;;;;;;;29.85;46.69;97674.44;5089936;28;20020;-79
2021/07/24 10:17:01;;;;;;;9.40;7.57;;;;;;;28.73;49.38;97674.88;5090325;28;20032;-80
2021/07/24 10:19:27;;;;;;;9.73;6.78;;;;;;;28.01;51.16;97671.25;5088635;28;20039;-79
2021/07/24 10:21:55;;;;;;;10.15;7.10;;;;;;;28.17;52.09;97672.31;5089980;28;20488;-76
2021/07/24 10:24:21;;;;;;;8.82;7.18;;;;;;;27.84;56.69;97677.88;5089944;28;20063;-74
2021/07/24 10:27:02;;;;;;;9.95;7.50;;;;;;;27.28;56.07;97668.66;5089340;28;20063;-74
2021/07/24 10:29:32;;;;;;;12.63;7.70;;;;;;;27.37;56.88;97660.56;5070932;28;20116;-76
2021/07/24 10:32:00;;;;;;;10.90;8.25;;;;;;;28.12;54.61;97664.34;5070637;28;20041;-74
2021/07/24 10:34:28;;;;;;;8.43;6.65;;;;;;;28.79;51.45;97659.16;5071364;28;20094;-75
2021/07/24 10:36:54;;;;;;;10.10;6.32;;;;;;;29.31;53.84;97663.22;5072757;28;20046;-73
2021/07/24 10:39:21;;;;;;;8.45;7.60;;;;;;;28.75;54.13;97658.38;5072826;28;20028;-77
2021/07/24 10:41:51;;;;;;;7.93;6.65;;;;;;;28.29;55.00;97659.72;5106510;28;20518;-75
2021/07/24 10:44:36;;;;;;;10.07;8.27;;;;;;;28.08;56.52;97648.72;5090887;28;20032;-75
2021/07/24 10:47:01;;;;;;;10.38;7.80;;;;;;;28.68;51.77;97654.44;5078256;28;20063;-78
2021/07/24 10:49:33;;;;;;;13.35;7.72;;;;;;;29.27;50.83;97651.19;5081490;28;20047;-77
2021/07/24 10:51:58;;;;;;;8.68;7.88;;;;;;;29.57;51.15;97645.47;5093694;28;20054;-79
2021/07/24 10:54:31;;;;;;;10.00;7.07;;;;;;;28.87;54.43;97643.72;5092604;28;20468;-80
2021/07/24 10:56:58;;;;;;;8.90;8.00;;;;;;;28.77;52.09;97642.66;5093138;28;20089;-79
2021/07/24 10:59:24;;;;;;;8.68;7.05;;;;;;;29.51;51.98;97638.72;5092759;28;20115;-79
2021/07/24 11:01:57;;;;;;;8.43;6.32;;;;;;;28.75;51.88;97641.50;5081229;28;20150;-77
2021/07/24 11:04:42;;;;;;;9.90;7.60;;;;;;;28.81;52.58;97636.97;5072384;28;20059;-77
2021/07/24 11:07:17;;;;;;;11.68;7.45;;;;;;;29.71;49.56;97641.63;5076052;28;20106;-77
2021/07/24 11:09:44;;;;;;;7.63;6.40;;;;;;;29.87;51.65;97638.13;5101075;28;20122;-81
2021/07/24 11:12:14;;;;;;;8.15;6.63;;;;;;;29.64;50.08;97630.44;5110871;28;20623;-80
2021/07/24 11:14:42;;;;;;;10.50;6.97;;;;;;;29.39;50.26;97635.72;5105948;28;20379;-79
2021/07/24 11:17:08;;;;;;;7.93;6.95;;;;;;;29.82;49.69;97628.16;5090995;28;20629;-81
2021/07/24 11:19:40;;;;;;;10.10;6.10;;;;;;;30.09;49.01;97634.50;5092660;28;20047;-78
2021/07/24 11:22:09;;;;;;;8.23;6.68;;;;;;;30.18;49.30;97636.72;5092814;28;20103;-79
2021/07/24 11:24:34;;;;;;;9.70;7.63;;;;;;;30.69;47.91;97638.13;5091433;28;20047;-79
2021/07/24 11:27:00;;;;;;;8.50;7.05;;;;;;;31.33;46.68;97629.81;5092779;28;20464;-79
2021/07/24 11:29:25;;;;;;;7.80;7.00;;;;;;;31.65;45.15;97622.56;5089692;28;20028;-80
2021/07/24 11:31:51;;;;;;;8.20;7.40;;;;;;;32.20;44.60;97630.03;5092451;28;20044;-78
2021/07/24 11:34:25;;;;;;;10.02;6.97;;;;;;;32.05;44.70;97628.81;5092466;28;20111;-78